Погода Скумросна 2 недели

Лодзинское воеводство, Польша

24 мая-06 июня
  • 24мая
    Сегодня
    +11°
    +26°
    Практически безоблачно
    ВремяПогодаТемператураВлажностьДавлениеВетер, м/сВероятность осадков
    02:00Облачно с прояснениями+13°C98 %745 мм1.9 м/с29 %
    05:00Ясно и безоблачно+13°C100 %745 мм1.9 м/с20 %
    08:00Ясно и безоблачно+18°C81 %746 мм0.4 м/с2 %
    11:00Ясно и безоблачно+22°C63 %746 мм2.3 м/с2 %
    14:00Практически безоблачно+24°C53 %745 мм3.3 м/с5 %
    17:00Облачно с прояснениями+22°C77 %745 мм2.3 м/с40 %
    20:00Ясно и безоблачно+20°C76 %745 мм2.1 м/с15 %
    23:00Ясно и безоблачно+16°C87 %745 мм2.4 м/с2 %
  • 25мая
    Суббота
    +12°
    +25°
    Небольшая облачность
    ВремяПогодаТемператураВлажностьДавлениеВетер, м/сВероятность осадков
    02:00Ясно и безоблачно+14°C90 %745 мм2.8 м/с2 %
    05:00Ясно и безоблачно+12°C96 %746 мм1.8 м/с2 %
    08:00Ясно и безоблачно+18°C78 %747 мм1.6 м/с1 %
    11:00Практически безоблачно+22°C58 %747 мм2.6 м/с11 %
    14:00Небольшая облачность+23°C52 %746 мм1.8 м/с21 %
    17:00Облачно с прояснениями, ливень+21°C75 %746 мм2.4 м/с50 %
    20:00Облачно с прояснениями+19°C84 %746 мм1.1 м/с25 %
    23:00Ясно и безоблачно+15°C90 %746 мм2.1 м/с2 %
  • 26мая
    Воскресенье
    +11°
    +25°
    Ясно и безоблачно
    ВремяПогодаТемператураВлажностьДавлениеВетер, м/сВероятность осадков
    02:00Ясно и безоблачно+13°C94 %746 мм2.2 м/с2 %
    05:00Ясно и безоблачно+12°C94 %746 мм1.6 м/с2 %
    08:00Ясно и безоблачно+18°C79 %747 мм0.6 м/с2 %
    11:00Ясно и безоблачно+24°C50 %747 мм1.8 м/с5 %
    14:00Ясно и безоблачно+25°C38 %747 мм2.5 м/с22 %
    17:00Практически безоблачно+23°C45 %747 мм2.3 м/с42 %
    20:00Ясно и безоблачно+20°C66 %747 мм1.7 м/с26 %
    23:00Практически безоблачно+16°C86 %747 мм1.9 м/с2 %
  • 27мая
    Понедельник
    +12°
    +25°
    Ясно и безоблачно
    ВремяПогодаТемператураВлажностьДавлениеВетер, м/сВероятность осадков
    02:00Ясно и безоблачно+13°C93 %747 мм2.0 м/с2 %
    05:00Ясно и безоблачно+11°C92 %747 мм2.2 м/с2 %
    08:00Ясно и безоблачно+18°C70 %748 мм0.9 м/с2 %
    11:00Ясно и безоблачно+24°C41 %748 мм2.0 м/с6 %
    14:00Ясно и безоблачно+25°C26 %747 мм3.7 м/с8 %
    17:00Ясно и безоблачно+25°C26 %746 мм4.2 м/с9 %
    20:00Ясно и безоблачно+21°C51 %746 мм2.1 м/с5 %
    23:00Ясно и безоблачно+17°C49 %746 мм3.7 м/с2 %
  • 28мая
    Вторник
    +12°
    +25°
    Практически безоблачно
    ВремяПогодаТемператураВлажностьДавлениеВетер, м/сВероятность осадков
    02:00Ясно и безоблачно+14°C58 %746 мм2.9 м/с2 %
    05:00Ясно и безоблачно+12°C59 %745 мм3.0 м/с2 %
    08:00Практически безоблачно+19°C53 %746 мм3.4 м/с2 %
    11:00Практически безоблачно+25°C28 %746 мм5.0 м/с2 %
    14:00Практически безоблачно+25°C28 %745 мм5.2 м/с2 %
    17:00Небольшая облачность+24°C31 %744 мм4.3 м/с5 %
    20:00Небольшая облачность+21°C50 %744 мм1.9 м/с6 %
    23:00Практически безоблачно+16°C62 %744 мм2.0 м/с2 %
Мы используем cookies
Соглашаюсь